createdAt,value
2022-08-26T00:02:19.300Z,2.28
2022-08-26T00:05:08.300Z,3.45
2022-08-26T00:07:41.637Z,5.63
2022-08-26T00:10:44.689Z,3.45
2022-08-26T00:13:32.058Z,2.90
2022-08-26T00:16:31.228Z,2.92
2022-08-26T00:19:04.540Z,3.78
2022-08-26T00:21:37.584Z,3.78
2022-08-26T00:24:16.464Z,3.00
2022-08-26T00:26:50.433Z,2.97
2022-08-26T00:29:25.095Z,2.53
2022-08-26T00:32:01.477Z,3.28
2022-08-26T00:34:37.005Z,3.63
2022-08-26T00:37:13.391Z,7.43
2022-08-26T00:40:17.406Z,3.47
2022-08-26T00:42:50.262Z,3.10
2022-08-26T00:45:23.395Z,5.90
2022-08-26T00:48:01.002Z,4.68
2022-08-26T00:50:43.051Z,3.60
2022-08-26T00:53:29.126Z,4.70
2022-08-26T00:56:16.115Z,4.85
2022-08-26T00:58:52.715Z,4.50
2022-08-26T01:01:30.733Z,4.43
2022-08-26T01:04:04.515Z,6.38
2022-08-26T01:06:38.079Z,6.32
2022-08-26T01:09:23.577Z,4.43
2022-08-26T01:12:00.459Z,4.45
2022-08-26T01:14:36.749Z,5.40
2022-08-26T01:20:35.904Z,4.63
2022-08-26T01:23:11.004Z,5.50
2022-08-26T01:26:30.792Z,6.85
2022-08-26T01:29:07.375Z,4.82
2022-08-26T01:31:43.879Z,7.47
2022-08-26T01:34:42.453Z,6.30
2022-08-26T01:37:19.396Z,7.40
2022-08-26T01:39:54.703Z,5.72
2022-08-26T01:42:31.657Z,7.28
2022-08-26T01:45:11.065Z,7.75
2022-08-26T01:47:57.371Z,6.32
2022-08-26T01:50:39.671Z,8.48
2022-08-26T01:53:18.789Z,6.78
2022-08-26T01:56:02.280Z,7.13
2022-08-26T01:58:46.620Z,8.18
2022-08-26T02:01:21.295Z,6.25
2022-08-26T02:04:25.967Z,8.65
2022-08-26T02:07:02.201Z,8.35
2022-08-26T02:09:41.252Z,7.68
2022-08-26T02:12:21.655Z,7.65
2022-08-26T02:15:00.676Z,12.35
2022-08-26T02:17:38.726Z,12.23
2022-08-26T02:20:15.430Z,10.18
2022-08-26T02:22:48.704Z,13.00
2022-08-26T02:25:43.437Z,9.77
2022-08-26T02:28:17.680Z,15.13
2022-08-26T02:30:58.448Z,12.25
2022-08-26T02:36:33.123Z,12.82
2022-08-26T02:39:06.486Z,14.15
2022-08-26T02:41:40.339Z,17.83
2022-08-26T02:47:33.329Z,10.32
2022-08-26T02:50:07.539Z,15.02
2022-08-26T02:55:32.032Z,15.93
2022-08-26T02:58:17.173Z,19.55
2022-08-26T03:00:57.647Z,17.58
2022-08-26T03:03:31.900Z,19.23
2022-08-26T03:06:05.632Z,12.85
2022-08-26T03:08:39.151Z,24.08
2022-08-26T03:14:35.643Z,23.73
2022-08-26T03:17:08.605Z,21.85
2022-08-26T03:19:43.016Z,21.40
2022-08-26T03:22:43.114Z,17.48
2022-08-26T03:25:20.891Z,19.85
2022-08-26T03:27:57.687Z,23.65
2022-08-26T03:30:56.497Z,24.70
2022-08-26T03:33:29.685Z,22.05
2022-08-26T03:36:03.951Z,20.90
2022-08-26T03:38:37.192Z,24.42
2022-08-26T03:41:12.178Z,21.17
2022-08-26T03:43:47.683Z,21.50
2022-08-26T03:46:26.763Z,23.88
2022-08-26T03:49:01.287Z,23.50
2022-08-26T03:51:35.806Z,24.73
2022-08-26T03:54:40.843Z,18.17
2022-08-26T03:57:19.641Z,17.85
2022-08-26T03:59:52.587Z,20.95
2022-08-26T04:03:06.512Z,23.10
2022-08-26T04:06:09.133Z,25.33
2022-08-26T04:08:42.561Z,24.35
2022-08-26T04:15:21.771Z,27.50
2022-08-26T04:17:56.012Z,27.33
2022-08-26T04:20:30.384Z,27.45
2022-08-26T04:23:03.602Z,27.80
2022-08-26T04:25:38.639Z,21.40
2022-08-26T04:28:14.799Z,22.23
2022-08-26T04:30:47.809Z,26.60
2022-08-26T04:33:32.235Z,22.13
2022-08-26T04:36:06.098Z,26.73
2022-08-26T04:38:39.409Z,24.33
2022-08-26T04:41:15.707Z,24.40
2022-08-26T04:43:50.617Z,19.45
2022-08-26T04:46:25.458Z,19.67
2022-08-26T04:48:59.120Z,21.10
2022-08-26T04:51:33.153Z,18.25
2022-08-26T04:54:07.343Z,22.77
2022-08-26T04:56:43.701Z,25.08
2022-08-26T04:59:18.411Z,19.75
2022-08-26T05:01:56.149Z,19.17
2022-08-26T05:04:29.694Z,21.60
2022-08-26T05:07:03.102Z,21.77
2022-08-26T05:09:36.946Z,19.77
2022-08-26T05:12:10.580Z,22.63
2022-08-26T05:14:43.508Z,17.33
2022-08-26T05:17:16.262Z,19.63
2022-08-26T05:19:50.991Z,18.67
2022-08-26T05:22:23.922Z,26.65
2022-08-26T05:24:58.306Z,19.00
2022-08-26T05:27:31.045Z,25.65
2022-08-26T05:30:06.649Z,21.10
2022-08-26T05:32:40.535Z,19.25
2022-08-26T05:35:13.495Z,21.00
2022-08-26T05:37:54.436Z,18.50
2022-08-26T05:40:28.770Z,16.38
2022-08-26T05:43:02.183Z,23.08
2022-08-26T05:45:35.055Z,20.65
2022-08-26T05:48:08.182Z,17.95
2022-08-26T05:50:46.882Z,20.40
2022-08-26T05:53:26.032Z,23.85
2022-08-26T05:56:02.570Z,20.92
2022-08-26T05:58:37.528Z,20.85
2022-08-26T06:01:17.274Z,16.33
2022-08-26T06:03:52.761Z,15.05
2022-08-26T06:06:29.363Z,17.42
2022-08-26T06:09:05.484Z,17.75
2022-08-26T06:11:39.025Z,14.20
2022-08-26T06:14:12.209Z,15.25
2022-08-26T06:16:46.387Z,17.52
2022-08-26T06:19:19.276Z,16.40
2022-08-26T06:21:54.926Z,14.85
2022-08-26T06:24:49.015Z,14.00
2022-08-26T06:27:24.470Z,12.13
2022-08-26T06:30:09.434Z,13.75
2022-08-26T06:32:42.354Z,13.70
2022-08-26T06:35:15.357Z,14.38
2022-08-26T06:37:48.275Z,12.00
2022-08-26T06:40:22.568Z,16.00
2022-08-26T06:42:55.639Z,13.68
2022-08-26T06:45:28.886Z,11.25
2022-08-26T06:48:01.767Z,14.05
2022-08-26T06:50:35.160Z,13.60
2022-08-26T06:53:09.633Z,13.00
2022-08-26T06:55:44.674Z,11.18
2022-08-26T06:58:17.545Z,11.50
2022-08-26T07:00:52.551Z,8.88
2022-08-26T07:03:25.386Z,13.52
2022-08-26T07:06:03.350Z,12.73
2022-08-26T07:08:36.339Z,10.40
2022-08-26T07:11:11.151Z,10.40
2022-08-26T07:13:46.560Z,8.80
2022-08-26T07:16:21.852Z,11.25
2022-08-26T07:18:57.310Z,12.43
2022-08-26T07:21:30.684Z,12.88
2022-08-26T07:24:04.254Z,13.77
2022-08-26T07:26:37.287Z,14.68
2022-08-26T07:29:12.355Z,12.37
2022-08-26T07:31:45.589Z,8.90
2022-08-26T07:34:18.657Z,10.43
2022-08-26T07:36:51.887Z,9.80
2022-08-26T07:39:25.567Z,9.52
2022-08-26T07:42:07.469Z,10.15
2022-08-26T07:44:41.705Z,13.02
2022-08-26T07:47:25.822Z,10.27
2022-08-26T07:50:00.129Z,14.82
2022-08-26T07:52:32.965Z,10.32
2022-08-26T07:55:08.987Z,10.98
2022-08-26T07:57:42.086Z,11.55
2022-08-26T08:00:16.575Z,10.90
2022-08-26T08:02:51.064Z,9.95
2022-08-26T08:05:33.432Z,12.30
2022-08-26T08:08:26.910Z,11.15
2022-08-26T08:11:01.969Z,9.55
2022-08-26T08:13:34.797Z,8.88
2022-08-26T08:16:08.574Z,9.77
2022-08-26T08:18:46.119Z,9.15
2022-08-26T08:21:21.344Z,9.55
2022-08-26T08:23:57.505Z,7.35
2022-08-26T08:26:30.309Z,10.27
2022-08-26T08:29:03.849Z,8.82
2022-08-26T08:31:57.006Z,8.43
2022-08-26T08:34:32.157Z,7.93
2022-08-26T08:37:08.759Z,11.00
2022-08-26T08:39:43.715Z,11.00
2022-08-26T08:42:41.491Z,8.20
2022-08-26T08:45:59.752Z,9.35
2022-08-26T08:48:37.422Z,7.25
2022-08-26T08:51:29.907Z,9.45
2022-08-26T08:54:02.865Z,7.93
2022-08-26T08:56:44.722Z,7.85
2022-08-26T08:59:24.166Z,9.30
2022-08-26T09:02:20.741Z,8.32
2022-08-26T09:05:15.231Z,8.70
2022-08-26T09:08:36.866Z,7.93
2022-08-26T09:11:10.990Z,8.68
2022-08-26T09:13:51.245Z,8.23
2022-08-26T09:16:43.413Z,6.65
2022-08-26T09:19:37.018Z,7.93
2022-08-26T09:22:09.998Z,8.10
2022-08-26T09:24:48.566Z,7.57
2022-08-26T09:27:44.601Z,7.20
2022-08-26T09:30:27.079Z,7.07
2022-08-26T09:33:11.184Z,6.50
2022-08-26T09:38:53.533Z,8.40
2022-08-26T09:41:28.303Z,5.57
2022-08-26T09:44:20.622Z,6.00
2022-08-26T09:46:57.485Z,5.68
2022-08-26T09:49:35.778Z,6.53
2022-08-26T09:52:17.695Z,6.82
2022-08-26T09:55:24.690Z,6.07
2022-08-26T09:58:02.265Z,5.47
2022-08-26T10:00:40.407Z,5.15
2022-08-26T10:03:25.083Z,6.28
2022-08-26T10:06:04.295Z,7.90
2022-08-26T10:08:40.847Z,6.65
2022-08-26T10:11:34.914Z,6.35
2022-08-26T10:14:32.481Z,4.35
2022-08-26T10:17:30.740Z,5.28
2022-08-26T10:20:29.861Z,5.68
2022-08-26T10:23:17.910Z,5.53
2022-08-26T10:26:01.637Z,4.95
2022-08-26T10:28:54.830Z,5.90
2022-08-26T10:31:38.244Z,6.55
2022-08-26T10:34:14.184Z,7.28
2022-08-26T10:37:18.630Z,4.45
2022-08-26T10:40:01.853Z,5.22
2022-08-26T10:43:07.042Z,5.50
2022-08-26T10:45:54.561Z,6.63
2022-08-26T10:49:17.780Z,5.30
2022-08-26T10:52:21.390Z,7.50
2022-08-26T10:55:09.012Z,5.82
2022-08-26T10:58:04.943Z,6.60
2022-08-26T11:01:10.153Z,6.43
2022-08-26T11:04:04.855Z,5.10
2022-08-26T11:06:37.768Z,4.20
2022-08-26T11:09:10.758Z,4.40
2022-08-26T11:11:47.097Z,5.03
2022-08-26T11:14:28.354Z,4.65
2022-08-26T11:17:02.945Z,6.53
2022-08-26T11:19:57.075Z,4.10
2022-08-26T11:22:36.192Z,5.88
2022-08-26T11:25:14.858Z,4.97
2022-08-26T11:27:54.253Z,3.95
2022-08-26T11:30:43.059Z,5.75
2022-08-26T11:33:47.696Z,5.07
2022-08-26T11:36:42.162Z,4.65
2022-08-26T11:39:20.889Z,4.20
2022-08-26T11:41:59.871Z,4.15
2022-08-26T11:44:49.077Z,4.88
2022-08-26T11:47:29.531Z,4.70
2022-08-26T11:50:19.710Z,4.85
2022-08-26T11:52:54.750Z,4.07
2022-08-26T11:55:29.809Z,4.05
2022-08-26T11:58:05.075Z,3.65
2022-08-26T12:01:11.466Z,3.88
2022-08-26T12:03:44.433Z,4.65
2022-08-26T12:06:29.342Z,4.63
2022-08-26T12:09:11.570Z,4.90
2022-08-26T12:11:44.318Z,3.97
2022-08-26T12:14:25.462Z,4.05
2022-08-26T12:17:14.041Z,3.55
2022-08-26T12:19:47.094Z,3.72
2022-08-26T12:22:34.478Z,3.30
2022-08-26T12:25:10.175Z,3.50
2022-08-26T12:27:45.275Z,3.05
2022-08-26T12:30:23.686Z,5.07
2022-08-26T12:33:22.972Z,5.25
2022-08-26T12:35:57.470Z,3.15
2022-08-26T12:38:30.938Z,3.22
2022-08-26T12:41:39.314Z,3.65
2022-08-26T12:44:32.202Z,4.90
2022-08-26T12:47:42.899Z,3.53
2022-08-26T12:50:23.584Z,2.55
2022-08-26T12:53:17.665Z,3.90
2022-08-26T12:56:00.097Z,2.90
2022-08-26T12:58:35.995Z,3.05
2022-08-26T13:01:09.541Z,3.08
2022-08-26T13:03:45.303Z,3.15
2022-08-26T13:06:26.156Z,3.92
2022-08-26T13:09:25.330Z,7.07
2022-08-26T13:12:49.179Z,3.88
2022-08-26T13:15:21.991Z,3.63
2022-08-26T13:17:54.778Z,2.80
2022-08-26T13:20:32.155Z,4.53
2022-08-26T13:23:11.715Z,2.80
2022-08-26T13:25:44.947Z,3.30
2022-08-26T13:28:18.225Z,3.38
2022-08-26T13:30:51.067Z,2.97
2022-08-26T13:33:23.986Z,2.80
2022-08-26T13:35:57.009Z,3.17
2022-08-26T13:38:33.301Z,4.55
2022-08-26T13:41:06.914Z,3.13
2022-08-26T13:43:39.807Z,3.20
2022-08-26T13:46:12.942Z,2.72
2022-08-26T13:48:46.110Z,3.00
2022-08-26T13:51:20.420Z,3.05
2022-08-26T13:53:54.000Z,5.30
2022-08-26T13:56:29.692Z,3.80
2022-08-26T13:59:03.024Z,5.30
2022-08-26T14:01:37.116Z,4.28
2022-08-26T14:04:09.934Z,3.28
2022-08-26T14:06:42.984Z,4.20
2022-08-26T14:09:15.753Z,3.20
2022-08-26T14:11:54.103Z,4.68
2022-08-26T14:14:27.757Z,3.40
2022-08-26T14:17:01.576Z,4.80
2022-08-26T14:19:34.566Z,6.43
2022-08-26T14:22:08.181Z,3.05
2022-08-26T14:24:40.959Z,4.15
2022-08-26T14:27:39.959Z,3.15
2022-08-26T14:30:14.074Z,3.83
2022-08-26T14:32:55.996Z,2.63
2022-08-26T14:35:30.691Z,3.55
2022-08-26T14:38:03.665Z,3.53
2022-08-26T14:40:37.547Z,4.80
2022-08-26T14:43:15.078Z,3.05
2022-08-26T14:45:47.949Z,2.53
2022-08-26T14:48:20.912Z,3.42
2022-08-26T14:50:53.653Z,2.50
2022-08-26T14:53:46.617Z,4.20
2022-08-26T14:56:19.475Z,3.53
2022-08-26T14:58:52.541Z,2.45
2022-08-26T15:01:34.227Z,2.72
2022-08-26T15:04:07.247Z,2.20
2022-08-26T15:07:05.496Z,2.30
2022-08-26T15:09:38.479Z,2.70
2022-08-26T15:12:11.328Z,3.58
2022-08-26T15:14:44.192Z,2.60
2022-08-26T15:17:17.455Z,2.97
2022-08-26T15:19:50.526Z,3.13
2022-08-26T15:22:25.999Z,3.33
2022-08-26T15:25:04.330Z,3.63
2022-08-26T15:27:37.717Z,2.47
2022-08-26T15:30:18.286Z,2.40
2022-08-26T15:32:51.097Z,3.17
2022-08-26T15:35:24.197Z,2.63
2022-08-26T15:37:56.968Z,2.40
2022-08-26T15:40:33.045Z,4.55
2022-08-26T15:43:25.459Z,2.60
2022-08-26T15:45:59.725Z,2.72
2022-08-26T15:48:32.558Z,2.30
2022-08-26T15:51:07.067Z,2.63
2022-08-26T15:53:39.819Z,4.57
2022-08-26T15:56:13.151Z,2.85
2022-08-26T15:58:46.677Z,4.63
2022-08-26T16:01:27.177Z,2.67
2022-08-26T16:04:00.758Z,4.63
2022-08-26T16:06:37.126Z,2.63
2022-08-26T16:09:10.202Z,2.30
2022-08-26T16:11:43.210Z,3.03
2022-08-26T16:14:16.463Z,4.97
2022-08-26T16:16:49.898Z,3.40
2022-08-26T16:19:22.933Z,2.53
2022-08-26T16:21:55.826Z,3.33
2022-08-26T16:24:30.672Z,4.90
2022-08-26T16:27:03.710Z,2.13
2022-08-26T16:29:38.051Z,3.40
2022-08-26T16:32:10.988Z,3.30
2022-08-26T16:34:56.541Z,4.22
2022-08-26T16:37:29.922Z,3.38
2022-08-26T16:40:03.790Z,2.47
2022-08-26T16:42:37.820Z,3.45
2022-08-26T16:45:10.862Z,2.03
2022-08-26T16:47:44.042Z,3.72
2022-08-26T16:50:18.542Z,2.97
2022-08-26T16:52:55.681Z,3.58
2022-08-26T16:55:28.805Z,3.30
2022-08-26T16:58:02.256Z,1.98
2022-08-26T17:00:47.344Z,2.10
2022-08-26T17:03:20.182Z,3.72
2022-08-26T17:05:53.178Z,2.33
2022-08-26T17:08:28.731Z,2.40
2022-08-26T17:11:02.128Z,3.40
2022-08-26T17:13:42.480Z,3.15
2022-08-26T17:16:16.060Z,2.30
2022-08-26T17:18:49.097Z,2.47
2022-08-26T17:21:21.887Z,2.45
2022-08-26T17:23:56.255Z,2.85
2022-08-26T17:26:29.285Z,2.97
2022-08-26T17:29:02.272Z,6.60
2022-08-26T17:31:35.016Z,4.35
2022-08-26T17:34:08.221Z,2.95
2022-08-26T17:36:41.127Z,7.82
2022-08-26T17:39:14.338Z,5.63
2022-08-26T17:41:47.165Z,4.55
2022-08-26T17:44:20.111Z,3.30
2022-08-26T17:46:52.972Z,3.25
2022-08-26T17:49:26.073Z,3.40
2022-08-26T17:51:59.967Z,4.53
2022-08-26T17:54:33.091Z,3.40
2022-08-26T17:57:31.197Z,3.42
2022-08-26T18:00:07.173Z,4.68
2022-08-26T18:02:40.763Z,4.47
2022-08-26T18:05:17.492Z,4.95
2022-08-26T18:07:51.362Z,5.53
2022-08-26T18:10:26.156Z,3.53
2022-08-26T18:12:58.890Z,5.18
2022-08-26T18:15:31.935Z,4.30
2022-08-26T18:18:05.344Z,4.32
2022-08-26T18:20:40.729Z,5.72
2022-08-26T18:23:13.643Z,6.00
2022-08-26T18:25:46.576Z,4.30
2022-08-26T18:28:19.494Z,5.22
2022-08-26T18:30:52.497Z,4.03
2022-08-26T18:33:25.422Z,6.45
2022-08-26T18:36:07.619Z,7.35
2022-08-26T18:38:40.510Z,7.75
2022-08-26T18:41:15.841Z,6.20
2022-08-26T18:43:50.350Z,4.30
2022-08-26T18:46:28.667Z,5.20
2022-08-26T18:49:03.615Z,4.22
2022-08-26T18:51:37.872Z,3.75
2022-08-26T18:54:11.643Z,4.38
2022-08-26T18:56:44.530Z,6.00
2022-08-26T18:59:17.874Z,5.75
2022-08-26T19:01:51.090Z,5.05
2022-08-26T19:04:23.958Z,3.60
2022-08-26T19:06:56.898Z,4.18
2022-08-26T19:09:31.464Z,6.45
2022-08-26T19:12:05.275Z,3.78
2022-08-26T19:14:38.099Z,6.72
2022-08-26T19:17:11.830Z,4.82
2022-08-26T19:19:44.744Z,3.55
2022-08-26T19:22:19.873Z,5.55
2022-08-26T19:24:52.688Z,3.50
2022-08-26T19:27:25.822Z,4.10
2022-08-26T19:29:59.134Z,3.70
2022-08-26T19:32:33.123Z,3.30
2022-08-26T19:35:08.314Z,4.65
2022-08-26T19:37:41.531Z,4.03
2022-08-26T19:40:14.488Z,3.70
2022-08-26T19:42:47.505Z,4.47
2022-08-26T19:45:25.341Z,4.07
2022-08-26T19:47:59.037Z,4.28
2022-08-26T19:50:34.294Z,5.32
2022-08-26T19:53:07.287Z,5.33
2022-08-26T19:55:40.171Z,5.05
2022-08-26T19:58:13.135Z,4.93
2022-08-26T20:00:45.994Z,3.95
2022-08-26T20:03:18.818Z,5.10
2022-08-26T20:05:51.803Z,4.65
2022-08-26T20:08:24.889Z,3.83
2022-08-26T20:11:05.768Z,3.85
2022-08-26T20:13:40.114Z,4.13
2022-08-26T20:16:13.755Z,4.28
2022-08-26T20:19:05.500Z,5.03
2022-08-26T20:21:40.674Z,5.13
2022-08-26T20:24:18.072Z,4.78
2022-08-26T20:26:50.874Z,3.17
2022-08-26T20:29:23.755Z,5.20
2022-08-26T20:31:56.913Z,2.90
2022-08-26T20:34:30.161Z,4.30
2022-08-26T20:37:05.961Z,3.17
2022-08-26T20:39:38.957Z,4.90
2022-08-26T20:42:20.508Z,2.97
2022-08-26T20:44:54.454Z,4.93
2022-08-26T20:47:28.066Z,3.55
2022-08-26T20:50:02.790Z,4.75
2022-08-26T20:52:35.595Z,2.58
2022-08-26T20:55:08.988Z,3.50
2022-08-26T20:57:43.118Z,3.38
2022-08-26T21:00:18.149Z,5.65
2022-08-26T21:02:52.903Z,3.33
2022-08-26T21:05:26.817Z,3.10
2022-08-26T21:07:59.755Z,2.75
2022-08-26T21:10:32.992Z,3.35
2022-08-26T21:13:06.266Z,5.18
2022-08-26T21:15:39.365Z,3.20
2022-08-26T21:18:12.236Z,4.20
2022-08-26T21:20:45.238Z,4.90
2022-08-26T21:23:18.587Z,2.92
2022-08-26T21:25:51.531Z,4.30
2022-08-26T21:28:24.298Z,2.75
2022-08-26T21:30:57.633Z,3.10
2022-08-26T21:33:30.491Z,3.72
2022-08-26T21:36:04.677Z,2.90
2022-08-26T21:38:39.065Z,3.15
2022-08-26T21:41:14.084Z,2.63
2022-08-26T21:43:48.196Z,2.30
2022-08-26T21:46:23.248Z,2.20
2022-08-26T21:49:00.445Z,2.38
2022-08-26T21:51:36.242Z,2.55
2022-08-26T21:54:11.465Z,2.88
2022-08-26T21:56:47.045Z,2.10
2022-08-26T21:59:19.906Z,3.75
2022-08-26T22:01:52.982Z,2.30
2022-08-26T22:04:26.230Z,1.90
2022-08-26T22:06:59.183Z,2.67
2022-08-26T22:09:32.261Z,1.90
2022-08-26T22:12:09.495Z,1.67
2022-08-26T22:14:42.860Z,2.20
2022-08-26T22:17:15.964Z,1.67
2022-08-26T22:19:48.777Z,1.98
2022-08-26T22:22:23.090Z,2.25
2022-08-26T22:24:55.856Z,4.00
2022-08-26T22:27:28.821Z,2.00
2022-08-26T22:30:01.980Z,1.67
2022-08-26T22:32:35.095Z,1.70
2022-08-26T22:35:28.206Z,2.72
2022-08-26T22:38:01.070Z,2.33
2022-08-26T22:40:35.459Z,1.40
2022-08-26T22:43:08.595Z,2.60
2022-08-26T22:45:43.829Z,2.10
2022-08-26T22:48:19.200Z,2.55
2022-08-26T22:50:59.596Z,2.38
2022-08-26T22:53:35.863Z,2.20
2022-08-26T22:56:12.073Z,2.17
2022-08-26T22:58:45.612Z,2.55
2022-08-26T23:01:18.629Z,2.63
2022-08-26T23:03:51.599Z,1.75
2022-08-26T23:06:24.435Z,2.08
2022-08-26T23:08:57.324Z,1.40
2022-08-26T23:11:30.098Z,2.17
2022-08-26T23:14:06.676Z,1.77
2022-08-26T23:16:43.947Z,1.40
2022-08-26T23:19:19.726Z,1.50
2022-08-26T23:21:52.546Z,1.60
2022-08-26T23:24:25.491Z,2.75
2022-08-26T23:26:58.352Z,2.08
2022-08-26T23:29:31.381Z,2.08
2022-08-26T23:32:04.529Z,1.40
2022-08-26T23:34:55.851Z,1.60
2022-08-26T23:37:33.431Z,1.98
2022-08-26T23:40:13.173Z,2.13
2022-08-26T23:42:46.011Z,1.90
2022-08-26T23:45:20.019Z,2.03
2022-08-26T23:47:53.919Z,2.33
2022-08-26T23:50:49.245Z,1.63
2022-08-26T23:53:22.503Z,1.38
2022-08-26T23:55:55.785Z,2.38
2022-08-26T23:58:28.567Z,2.55
